createdAt,value
2023-04-29T00:00:36.345Z,88305.00
2023-04-29T00:01:36.414Z,88307.00
2023-04-29T00:02:36.656Z,88307.00
2023-04-29T00:03:36.649Z,88305.00
2023-04-29T00:04:36.727Z,88307.00
2023-04-29T00:05:36.793Z,88309.00
2023-04-29T00:06:36.744Z,88307.00
2023-04-29T00:07:36.792Z,88307.00
2023-04-29T00:08:36.868Z,88309.00
2023-04-29T00:09:36.930Z,88309.00
2023-04-29T00:10:37.000Z,88315.00
2023-04-29T00:11:37.047Z,88313.00
2023-04-29T00:12:37.107Z,88315.00
2023-04-29T00:13:37.155Z,88313.00
2023-04-29T00:14:37.196Z,88315.00
2023-04-29T00:15:37.213Z,88315.00
2023-04-29T00:16:37.278Z,88315.00
2023-04-29T00:17:37.357Z,88313.00
2023-04-29T00:18:37.371Z,88313.00
2023-04-29T00:19:37.434Z,88311.00
2023-04-29T00:20:37.503Z,88311.00
2023-04-29T00:21:37.575Z,88311.00
2023-04-29T00:22:37.642Z,88309.00
2023-04-29T00:23:37.716Z,88309.00
2023-04-29T00:24:37.726Z,88305.00
2023-04-29T00:25:37.677Z,88305.00
2023-04-29T00:26:37.700Z,88298.00
2023-04-29T00:27:37.682Z,88294.00
2023-04-29T00:28:37.731Z,88290.00
2023-04-29T00:29:37.677Z,88282.00
2023-04-29T00:30:37.674Z,88280.00
2023-04-29T00:31:38.066Z,88284.00
2023-04-29T00:32:37.701Z,88282.00
2023-04-29T00:33:37.714Z,88284.00
2023-04-29T00:34:37.772Z,88278.00
2023-04-29T00:35:37.837Z,88280.00
2023-04-29T00:36:37.923Z,88278.00
2023-04-29T00:37:38.000Z,88274.00
2023-04-29T00:38:38.015Z,88274.00
2023-04-29T00:39:38.083Z,88274.00
2023-04-29T00:40:38.188Z,88276.00
2023-04-29T00:41:38.263Z,88278.00
2023-04-29T00:42:38.324Z,88280.00
2023-04-29T00:43:38.300Z,88278.00
2023-04-29T00:44:38.298Z,88278.00
2023-04-29T00:45:38.295Z,88278.00
2023-04-29T00:46:38.371Z,88276.00
2023-04-29T00:47:38.322Z,88278.00
2023-04-29T00:48:38.312Z,88280.00
2023-04-29T00:49:38.300Z,88280.00
2023-04-29T00:50:38.304Z,88278.00
2023-04-29T00:51:38.307Z,88282.00
2023-04-29T00:52:38.348Z,88278.00
2023-04-29T00:53:38.408Z,88278.00
2023-04-29T00:54:38.464Z,88274.00
2023-04-29T00:55:38.522Z,88272.00
2023-04-29T00:56:38.590Z,88268.00
2023-04-29T00:57:38.655Z,88268.00
2023-04-29T00:58:38.700Z,88268.00
2023-04-29T00:59:38.758Z,88270.00
2023-04-29T01:00:38.808Z,88272.00
2023-04-29T01:01:38.940Z,88274.00
2023-04-29T01:02:39.028Z,88272.00
2023-04-29T01:03:39.275Z,88276.00
2023-04-29T01:04:39.100Z,88276.00
2023-04-29T01:05:39.068Z,88276.00
2023-04-29T01:06:39.079Z,88276.00
2023-04-29T01:07:39.074Z,88276.00
2023-04-29T01:08:39.072Z,88276.00
2023-04-29T01:09:39.060Z,88278.00
2023-04-29T01:10:39.048Z,88280.00
2023-04-29T01:11:39.047Z,88280.00
2023-04-29T01:12:39.044Z,88278.00
2023-04-29T01:13:39.056Z,88278.00
2023-04-29T01:14:39.080Z,88274.00
2023-04-29T01:15:39.162Z,88274.00
2023-04-29T01:16:39.428Z,88278.00
2023-04-29T01:17:39.299Z,88280.00
2023-04-29T01:18:39.340Z,88282.00
2023-04-29T01:19:39.401Z,88284.00
2023-04-29T01:20:39.451Z,88288.00
2023-04-29T01:21:39.547Z,88290.00
2023-04-29T01:22:39.593Z,88294.00
2023-04-29T01:23:39.651Z,88299.00
2023-04-29T01:24:39.722Z,88299.00
2023-04-29T01:25:39.794Z,88299.00
2023-04-29T01:26:39.894Z,88298.00
2023-04-29T01:27:39.940Z,88296.00
2023-04-29T01:28:39.973Z,88294.00
2023-04-29T01:29:40.032Z,88301.00
2023-04-29T01:30:40.160Z,88303.00
2023-04-29T01:31:40.255Z,88301.00
2023-04-29T01:32:40.240Z,88298.00
2023-04-29T01:33:40.278Z,88296.00
2023-04-29T01:34:40.370Z,88292.00
2023-04-29T01:35:40.416Z,88292.00
2023-04-29T01:36:40.511Z,88294.00
2023-04-29T01:37:40.592Z,88298.00
2023-04-29T01:38:40.602Z,88299.00
2023-04-29T01:39:40.661Z,88303.00
2023-04-29T01:40:40.733Z,88301.00
2023-04-29T01:41:40.800Z,88298.00
2023-04-29T01:42:40.852Z,88292.00
2023-04-29T01:43:40.922Z,88288.00
2023-04-29T01:44:41.001Z,88282.00
2023-04-29T01:45:41.027Z,88278.00
2023-04-29T01:46:41.144Z,88282.00
2023-04-29T01:47:41.115Z,88284.00
2023-04-29T01:48:41.081Z,88284.00
2023-04-29T01:49:41.068Z,88284.00
2023-04-29T01:50:41.066Z,88284.00
2023-04-29T01:51:41.070Z,88282.00
2023-04-29T01:52:41.066Z,88276.00
2023-04-29T01:53:41.075Z,88272.00
2023-04-29T01:54:41.064Z,88278.00
2023-04-29T01:55:41.036Z,88276.00
2023-04-29T01:56:41.102Z,88278.00
2023-04-29T01:57:41.145Z,88280.00
2023-04-29T01:58:41.221Z,88284.00
2023-04-29T01:59:41.274Z,88284.00
2023-04-29T02:00:41.358Z,88282.00
2023-04-29T02:01:41.400Z,88278.00
2023-04-29T02:02:41.543Z,88274.00
2023-04-29T02:03:41.672Z,88274.00
2023-04-29T02:04:41.597Z,88276.00
2023-04-29T02:05:41.558Z,88278.00
2023-04-29T02:06:41.637Z,88276.00
2023-04-29T02:07:41.675Z,88276.00
2023-04-29T02:08:41.767Z,88276.00
2023-04-29T02:09:41.807Z,88274.00
2023-04-29T02:10:41.881Z,88268.00
2023-04-29T02:11:41.949Z,88266.00
2023-04-29T02:12:42.024Z,88266.00
2023-04-29T02:13:42.089Z,88266.00
2023-04-29T02:14:42.144Z,88264.00
2023-04-29T02:15:42.198Z,88262.00
2023-04-29T02:16:42.332Z,88262.00
2023-04-29T02:17:42.356Z,88262.00
2023-04-29T02:18:42.375Z,88260.00
2023-04-29T02:19:42.439Z,88256.00
2023-04-29T02:20:42.513Z,88254.00
2023-04-29T02:21:42.590Z,88254.00
2023-04-29T02:22:42.655Z,88254.00
2023-04-29T02:23:42.694Z,88254.00
2023-04-29T02:24:42.761Z,88252.00
2023-04-29T02:25:42.824Z,88252.00
2023-04-29T02:26:42.903Z,88258.00
2023-04-29T02:27:42.965Z,88258.00
2023-04-29T02:28:43.005Z,88260.00
2023-04-29T02:29:43.003Z,88256.00
2023-04-29T02:30:43.000Z,88254.00
2023-04-29T02:31:43.058Z,88250.00
2023-04-29T02:32:43.005Z,88248.00
2023-04-29T02:33:42.982Z,88248.00
2023-04-29T02:34:42.979Z,88246.00
2023-04-29T02:35:42.974Z,88248.00
2023-04-29T02:36:42.977Z,88246.00
2023-04-29T02:37:42.954Z,88246.00
2023-04-29T02:38:42.951Z,88250.00
2023-04-29T02:39:42.957Z,88254.00
2023-04-29T02:40:42.944Z,88256.00
2023-04-29T02:41:42.932Z,88258.00
2023-04-29T02:42:42.982Z,88258.00
2023-04-29T02:43:42.925Z,88254.00
2023-04-29T02:44:42.930Z,88256.00
2023-04-29T02:45:42.947Z,88256.00
2023-04-29T02:46:42.925Z,88254.00
2023-04-29T02:47:42.963Z,88256.00
2023-04-29T02:48:42.999Z,88254.00
2023-04-29T02:49:43.070Z,88256.00
2023-04-29T02:50:43.141Z,88250.00
2023-04-29T02:51:43.185Z,88248.00
2023-04-29T02:52:43.254Z,88250.00
2023-04-29T02:53:43.310Z,88250.00
2023-04-29T02:54:43.382Z,88250.00
2023-04-29T02:55:43.427Z,88252.00
2023-04-29T02:56:43.488Z,88248.00
2023-04-29T02:57:43.530Z,88248.00
2023-04-29T02:58:43.570Z,88248.00
2023-04-29T02:59:43.606Z,88252.00
2023-04-29T03:00:43.666Z,88254.00
2023-04-29T03:01:43.802Z,88252.00
2023-04-29T03:02:43.811Z,88256.00
2023-04-29T03:03:44.060Z,88252.00
2023-04-29T03:04:43.867Z,88254.00
2023-04-29T03:05:43.919Z,88258.00
2023-04-29T03:06:43.958Z,88262.00
2023-04-29T03:07:44.027Z,88260.00
2023-04-29T03:08:44.087Z,88260.00
2023-04-29T03:09:44.167Z,88258.00
2023-04-29T03:10:44.193Z,88252.00
2023-04-29T03:11:44.463Z,88250.00
2023-04-29T03:12:44.270Z,88250.00
2023-04-29T03:13:44.310Z,88248.00
2023-04-29T03:14:44.311Z,88250.00
2023-04-29T03:15:44.337Z,88250.00
2023-04-29T03:16:44.439Z,88250.00
2023-04-29T03:17:44.348Z,88246.00
2023-04-29T03:18:44.341Z,88246.00
2023-04-29T03:19:44.342Z,88246.00
2023-04-29T03:20:44.393Z,88244.00
2023-04-29T03:21:44.401Z,88244.00
2023-04-29T03:22:44.384Z,88243.00
2023-04-29T03:23:44.348Z,88241.00
2023-04-29T03:24:44.362Z,88244.00
2023-04-29T03:25:44.400Z,88243.00
2023-04-29T03:26:44.382Z,88241.00
2023-04-29T03:27:44.414Z,88241.00
2023-04-29T03:28:44.437Z,88243.00
2023-04-29T03:29:44.398Z,88239.00
2023-04-29T03:30:44.400Z,88241.00
2023-04-29T03:31:44.588Z,88244.00
2023-04-29T03:32:44.451Z,88246.00
2023-04-29T03:33:44.438Z,88248.00
2023-04-29T03:34:44.439Z,88246.00
2023-04-29T03:35:44.431Z,88244.00
2023-04-29T03:36:44.467Z,88243.00
2023-04-29T03:37:44.637Z,88237.00
2023-04-29T03:38:44.430Z,88235.00
2023-04-29T03:39:44.455Z,88231.00
2023-04-29T03:40:44.448Z,88231.00
2023-04-29T03:41:44.457Z,88231.00
2023-04-29T03:42:44.453Z,88235.00
2023-04-29T03:43:44.448Z,88235.00
2023-04-29T03:44:44.446Z,88237.00
2023-04-29T03:45:44.448Z,88239.00
2023-04-29T03:46:44.484Z,88239.00
2023-04-29T03:47:44.518Z,88241.00
2023-04-29T03:48:44.443Z,88243.00
2023-04-29T03:49:44.452Z,88244.00
2023-04-29T03:50:44.448Z,88244.00
2023-04-29T03:51:44.459Z,88246.00
2023-04-29T03:52:44.455Z,88244.00
2023-04-29T03:53:44.449Z,88244.00
2023-04-29T03:54:44.461Z,88243.00
2023-04-29T03:55:44.463Z,88246.00
2023-04-29T03:56:44.473Z,88244.00
2023-04-29T03:57:44.468Z,88241.00
2023-04-29T03:58:44.456Z,88239.00
2023-04-29T03:59:44.470Z,88235.00
2023-04-29T04:00:44.464Z,88235.00
2023-04-29T04:01:44.474Z,88237.00
2023-04-29T04:02:45.024Z,88239.00
2023-04-29T04:03:44.565Z,88241.00
2023-04-29T04:04:44.697Z,88244.00
2023-04-29T04:05:44.482Z,88244.00
2023-04-29T04:06:44.447Z,88246.00
2023-04-29T04:07:44.458Z,88246.00
2023-04-29T04:08:44.446Z,88241.00
2023-04-29T04:09:44.446Z,88239.00
2023-04-29T04:10:44.446Z,88237.00
2023-04-29T04:11:44.441Z,88235.00
2023-04-29T04:12:44.509Z,88235.00
2023-04-29T04:13:44.488Z,88235.00
2023-04-29T04:14:44.433Z,88237.00
2023-04-29T04:15:44.432Z,88237.00
2023-04-29T04:16:44.439Z,88239.00
2023-04-29T04:17:44.494Z,88241.00
2023-04-29T04:18:44.426Z,88241.00
2023-04-29T04:19:44.407Z,88239.00
2023-04-29T04:20:44.401Z,88237.00
2023-04-29T04:21:44.406Z,88237.00
2023-04-29T04:22:44.415Z,88237.00
2023-04-29T04:23:44.409Z,88235.00
2023-04-29T04:24:44.439Z,88231.00
2023-04-29T04:25:44.483Z,88229.00
2023-04-29T04:26:44.507Z,88227.00
2023-04-29T04:27:44.548Z,88229.00
2023-04-29T04:28:44.596Z,88227.00
2023-04-29T04:29:44.613Z,88231.00
2023-04-29T04:30:44.632Z,88231.00
2023-04-29T04:31:46.736Z,88231.00
2023-04-29T04:32:44.747Z,88233.00
2023-04-29T04:33:44.726Z,88235.00
2023-04-29T04:34:44.731Z,88237.00
2023-04-29T04:35:44.728Z,88235.00
2023-04-29T04:36:44.720Z,88233.00
2023-04-29T04:37:44.741Z,88241.00
2023-04-29T04:38:44.744Z,88244.00
2023-04-29T04:39:44.711Z,88243.00
2023-04-29T04:40:44.719Z,88244.00
2023-04-29T04:41:44.705Z,88244.00
2023-04-29T04:42:44.688Z,88243.00
2023-04-29T04:43:44.689Z,88244.00
2023-04-29T04:44:44.697Z,88248.00
2023-04-29T04:45:44.758Z,88248.00
2023-04-29T04:46:44.685Z,88244.00
2023-04-29T04:47:44.714Z,88244.00
2023-04-29T04:48:44.682Z,88244.00
2023-04-29T04:49:44.690Z,88246.00
2023-04-29T04:50:44.729Z,88246.00
2023-04-29T04:51:44.715Z,88248.00
2023-04-29T04:52:44.671Z,88252.00
2023-04-29T04:53:44.708Z,88250.00
2023-04-29T04:54:44.678Z,88250.00
2023-04-29T04:55:44.675Z,88250.00
2023-04-29T04:56:44.710Z,88246.00
2023-04-29T04:57:44.680Z,88246.00
2023-04-29T04:58:44.715Z,88244.00
2023-04-29T04:59:44.729Z,88246.00
2023-04-29T05:00:44.809Z,88243.00
2023-04-29T05:01:44.803Z,88246.00
2023-04-29T05:02:44.964Z,88246.00
2023-04-29T05:03:45.115Z,88246.00
2023-04-29T05:04:44.910Z,88250.00
2023-04-29T05:05:45.052Z,88250.00
2023-04-29T05:06:44.978Z,88250.00
2023-04-29T05:07:45.034Z,88252.00
2023-04-29T05:08:45.072Z,88252.00
2023-04-29T05:09:45.089Z,88250.00
2023-04-29T05:10:45.124Z,88254.00
2023-04-29T05:11:45.175Z,88256.00
2023-04-29T05:12:45.214Z,88254.00
2023-04-29T05:13:45.252Z,88256.00
2023-04-29T05:14:45.286Z,88256.00
2023-04-29T05:15:45.328Z,88252.00
2023-04-29T05:16:45.425Z,88254.00
2023-04-29T05:17:45.526Z,88256.00
2023-04-29T05:18:45.465Z,88254.00
2023-04-29T05:19:45.526Z,88254.00
2023-04-29T05:20:45.548Z,88254.00
2023-04-29T05:21:45.595Z,88256.00
2023-04-29T05:22:45.656Z,88258.00
2023-04-29T05:23:45.676Z,88260.00
2023-04-29T05:24:45.709Z,88262.00
2023-04-29T05:25:45.753Z,88264.00
2023-04-29T05:26:45.822Z,88258.00
2023-04-29T05:27:45.857Z,88260.00
2023-04-29T05:28:45.885Z,88262.00
2023-04-29T05:29:45.925Z,88264.00
2023-04-29T05:30:46.005Z,88264.00
2023-04-29T05:31:46.019Z,88270.00
2023-04-29T05:32:46.078Z,88266.00
2023-04-29T05:33:46.116Z,88266.00
2023-04-29T05:34:46.166Z,88264.00
2023-04-29T05:35:46.220Z,88264.00
2023-04-29T05:36:46.239Z,88268.00
2023-04-29T05:37:46.305Z,88266.00
2023-04-29T05:38:46.340Z,88266.00
2023-04-29T05:39:46.381Z,88266.00
2023-04-29T05:40:46.466Z,88266.00
2023-04-29T05:41:46.470Z,88266.00
2023-04-29T05:42:46.532Z,88266.00
2023-04-29T05:43:46.591Z,88262.00
2023-04-29T05:44:46.629Z,88262.00
2023-04-29T05:45:46.688Z,88260.00
2023-04-29T05:46:46.639Z,88258.00
2023-04-29T05:47:46.667Z,88260.00
2023-04-29T05:48:46.640Z,88258.00
2023-04-29T05:49:46.638Z,88258.00
2023-04-29T05:50:46.626Z,88260.00
2023-04-29T05:51:46.649Z,88262.00
2023-04-29T05:52:46.647Z,88264.00
2023-04-29T05:53:46.615Z,88264.00
2023-04-29T05:54:46.662Z,88266.00
2023-04-29T05:55:47.653Z,88264.00
2023-04-29T05:56:46.617Z,88266.00
2023-04-29T05:57:46.635Z,88264.00
2023-04-29T05:58:46.640Z,88266.00
2023-04-29T05:59:46.712Z,88270.00
2023-04-29T06:00:46.747Z,88272.00
2023-04-29T06:01:46.784Z,88272.00
2023-04-29T06:02:57.259Z,88276.00
2023-04-29T06:03:48.218Z,88276.00
2023-04-29T06:04:46.991Z,88276.00
2023-04-29T06:05:47.186Z,88276.00
2023-04-29T06:06:46.832Z,88278.00
2023-04-29T06:07:46.832Z,88278.00
2023-04-29T06:08:46.842Z,88276.00
2023-04-29T06:09:46.916Z,88274.00
2023-04-29T06:10:46.828Z,88272.00
2023-04-29T06:11:46.819Z,88270.00
2023-04-29T06:12:46.848Z,88272.00
2023-04-29T06:13:46.841Z,88272.00
2023-04-29T06:14:46.817Z,88270.00
2023-04-29T06:15:46.883Z,88270.00
2023-04-29T06:16:46.842Z,88272.00
2023-04-29T06:17:46.879Z,88272.00
2023-04-29T06:18:46.849Z,88268.00
2023-04-29T06:19:46.865Z,88268.00
2023-04-29T06:20:46.843Z,88268.00
2023-04-29T06:21:46.868Z,88272.00
2023-04-29T06:22:46.857Z,88274.00
2023-04-29T06:23:46.858Z,88276.00
2023-04-29T06:24:46.852Z,88282.00
2023-04-29T06:25:46.913Z,88278.00
2023-04-29T06:26:46.872Z,88282.00
2023-04-29T06:27:46.859Z,88278.00
2023-04-29T06:28:46.862Z,88278.00
2023-04-29T06:29:46.916Z,88276.00
2023-04-29T06:30:46.873Z,88276.00
2023-04-29T06:31:46.898Z,88280.00
2023-04-29T06:32:47.040Z,88284.00
2023-04-29T06:33:46.869Z,88284.00
2023-04-29T06:34:46.874Z,88282.00
2023-04-29T06:35:46.872Z,88284.00
2023-04-29T06:36:46.853Z,88284.00
2023-04-29T06:37:46.875Z,88284.00
2023-04-29T06:38:46.858Z,88282.00
2023-04-29T06:39:46.855Z,88284.00
2023-04-29T06:40:46.852Z,88280.00
2023-04-29T06:41:46.857Z,88278.00
2023-04-29T06:42:46.859Z,88280.00
2023-04-29T06:43:48.624Z,88282.00
2023-04-29T06:44:46.854Z,88278.00
2023-04-29T06:45:46.848Z,88274.00
2023-04-29T06:46:46.870Z,88274.00
2023-04-29T06:47:46.917Z,88272.00
2023-04-29T06:48:46.830Z,88270.00
2023-04-29T06:49:46.826Z,88268.00
2023-04-29T06:50:46.807Z,88268.00
2023-04-29T06:51:46.797Z,88268.00
2023-04-29T06:52:46.801Z,88268.00
2023-04-29T06:53:46.793Z,88268.00
2023-04-29T06:54:46.784Z,88268.00
2023-04-29T06:55:46.780Z,88266.00
2023-04-29T06:56:46.805Z,88270.00
2023-04-29T06:57:46.770Z,88270.00
2023-04-29T06:58:46.793Z,88270.00
2023-04-29T06:59:46.819Z,88268.00
2023-04-29T07:00:46.932Z,88268.00
2023-04-29T07:01:49.058Z,88266.00
2023-04-29T07:02:47.031Z,88256.00
2023-04-29T07:03:47.106Z,88254.00
2023-04-29T07:04:46.880Z,88254.00
2023-04-29T07:05:46.845Z,88252.00
2023-04-29T07:06:46.937Z,88254.00
2023-04-29T07:07:46.818Z,88252.00
2023-04-29T07:08:46.832Z,88250.00
2023-04-29T07:09:46.793Z,88250.00
2023-04-29T07:10:46.765Z,88248.00
2023-04-29T07:11:46.734Z,88252.00
2023-04-29T07:12:46.753Z,88250.00
2023-04-29T07:13:46.726Z,88250.00
2023-04-29T07:14:46.753Z,88248.00
2023-04-29T07:15:46.803Z,88248.00
2023-04-29T07:16:46.858Z,88244.00
2023-04-29T07:17:46.969Z,88246.00
2023-04-29T07:18:46.909Z,88246.00
2023-04-29T07:19:46.913Z,88246.00
2023-04-29T07:20:46.960Z,88246.00
2023-04-29T07:21:46.999Z,88248.00
2023-04-29T07:22:47.061Z,88246.00
2023-04-29T07:23:47.158Z,88246.00
2023-04-29T07:24:47.168Z,88243.00
2023-04-29T07:25:47.201Z,88246.00
2023-04-29T07:26:47.239Z,88243.00
2023-04-29T07:27:47.261Z,88244.00
2023-04-29T07:28:47.303Z,88244.00
2023-04-29T07:29:47.360Z,88243.00
2023-04-29T07:30:47.416Z,88244.00
2023-04-29T07:31:47.471Z,88244.00
2023-04-29T07:32:47.561Z,88244.00
2023-04-29T07:33:47.625Z,88244.00
2023-04-29T07:34:47.632Z,88246.00
2023-04-29T07:35:47.688Z,88246.00
2023-04-29T07:36:47.740Z,88250.00
2023-04-29T07:37:47.827Z,88248.00
2023-04-29T07:38:47.856Z,88248.00
2023-04-29T07:39:47.893Z,88248.00
2023-04-29T07:40:47.952Z,88252.00
2023-04-29T07:41:48.005Z,88248.00
2023-04-29T07:42:48.083Z,88248.00
2023-04-29T07:43:48.085Z,88248.00
2023-04-29T07:44:48.139Z,88248.00
2023-04-29T07:45:48.216Z,88250.00
2023-04-29T07:46:48.285Z,88252.00
2023-04-29T07:47:48.183Z,88256.00
2023-04-29T07:48:48.129Z,88260.00
2023-04-29T07:49:48.116Z,88260.00
2023-04-29T07:50:48.111Z,88262.00
2023-04-29T07:51:48.105Z,88258.00
2023-04-29T07:52:48.083Z,88258.00
2023-04-29T07:53:48.039Z,88258.00
2023-04-29T07:54:48.018Z,88256.00
2023-04-29T07:55:48.010Z,88256.00
2023-04-29T07:56:47.987Z,88256.00
2023-04-29T07:57:47.957Z,88256.00
2023-04-29T07:58:47.943Z,88258.00
2023-04-29T07:59:47.924Z,88258.00
2023-04-29T08:00:47.890Z,88256.00
2023-04-29T08:01:47.894Z,88254.00
2023-04-29T08:02:47.983Z,88254.00
2023-04-29T08:03:47.990Z,88254.00
2023-04-29T08:04:48.041Z,88256.00
2023-04-29T08:05:47.815Z,88252.00
2023-04-29T08:06:47.832Z,88252.00
2023-04-29T08:07:47.745Z,88252.00
2023-04-29T08:08:47.734Z,88254.00
2023-04-29T08:09:47.718Z,88256.00
2023-04-29T08:10:47.679Z,88248.00
2023-04-29T08:11:47.632Z,88248.00
2023-04-29T08:12:47.702Z,88250.00
2023-04-29T08:13:47.605Z,88250.00
2023-04-29T08:14:47.589Z,88248.00
2023-04-29T08:15:47.582Z,88248.00
2023-04-29T08:16:47.526Z,88244.00
2023-04-29T08:17:47.535Z,88246.00
2023-04-29T08:18:47.493Z,88244.00
2023-04-29T08:19:47.456Z,88243.00
2023-04-29T08:20:47.451Z,88243.00
2023-04-29T08:21:47.421Z,88244.00
2023-04-29T08:22:47.395Z,88243.00
2023-04-29T08:23:47.366Z,88243.00
2023-04-29T08:24:47.319Z,88243.00
2023-04-29T08:25:47.577Z,88239.00
2023-04-29T08:26:47.288Z,88241.00
2023-04-29T08:27:47.268Z,88241.00
2023-04-29T08:28:47.224Z,88239.00
2023-04-29T08:29:47.226Z,88239.00
2023-04-29T08:30:47.185Z,88239.00
2023-04-29T08:31:47.223Z,88239.00
2023-04-29T08:32:47.283Z,88237.00
2023-04-29T08:33:47.111Z,88239.00
2023-04-29T08:34:47.115Z,88239.00
2023-04-29T08:35:47.076Z,88239.00
2023-04-29T08:36:47.071Z,88237.00
2023-04-29T08:37:47.084Z,88237.00
2023-04-29T08:38:47.204Z,88237.00
2023-04-29T08:39:47.002Z,88243.00
2023-04-29T08:40:47.017Z,88241.00
2023-04-29T08:41:46.939Z,88244.00
2023-04-29T08:42:48.871Z,88246.00
2023-04-29T08:43:46.898Z,88246.00
2023-04-29T08:44:46.876Z,88246.00
2023-04-29T08:45:46.898Z,88248.00
2023-04-29T08:46:46.834Z,88244.00
2023-04-29T08:47:47.174Z,88246.00
2023-04-29T08:48:46.861Z,88243.00
2023-04-29T08:49:46.748Z,88241.00
2023-04-29T08:50:46.745Z,88244.00
2023-04-29T08:51:46.699Z,88243.00
2023-04-29T08:52:46.682Z,88243.00
2023-04-29T08:53:46.656Z,88239.00
2023-04-29T08:54:46.617Z,88241.00
2023-04-29T08:55:46.581Z,88239.00
2023-04-29T08:56:46.554Z,88239.00
2023-04-29T08:57:46.539Z,88235.00
2023-04-29T08:58:46.531Z,88241.00
2023-04-29T08:59:46.490Z,88241.00
2023-04-29T09:00:46.462Z,88239.00
2023-04-29T09:01:46.492Z,88239.00
2023-04-29T09:02:46.542Z,88237.00
2023-04-29T09:03:46.573Z,88233.00
2023-04-29T09:04:46.439Z,88235.00
2023-04-29T09:05:46.325Z,88237.00
2023-04-29T09:06:46.334Z,88235.00
2023-04-29T09:07:46.340Z,88233.00
2023-04-29T09:08:46.364Z,88235.00
2023-04-29T09:09:46.389Z,88235.00
2023-04-29T09:10:46.405Z,88235.00
2023-04-29T09:11:46.439Z,88235.00
2023-04-29T09:12:46.477Z,88233.00
2023-04-29T09:13:46.545Z,88233.00
2023-04-29T09:14:46.573Z,88237.00
2023-04-29T09:15:46.592Z,88235.00
2023-04-29T09:16:46.673Z,88233.00
2023-04-29T09:17:46.625Z,88233.00
2023-04-29T09:18:46.572Z,88231.00
2023-04-29T09:19:46.489Z,88231.00
2023-04-29T09:20:46.470Z,88231.00
2023-04-29T09:21:46.419Z,88231.00
2023-04-29T09:22:46.387Z,88229.00
2023-04-29T09:23:46.360Z,88231.00
2023-04-29T09:24:46.323Z,88231.00
2023-04-29T09:25:46.292Z,88229.00
2023-04-29T09:26:46.264Z,88229.00
2023-04-29T09:27:46.257Z,88229.00
2023-04-29T09:28:46.227Z,88227.00
2023-04-29T09:29:46.190Z,88223.00
2023-04-29T09:30:46.213Z,88225.00
2023-04-29T09:31:46.255Z,88223.00
2023-04-29T09:32:46.336Z,88225.00
2023-04-29T09:33:46.343Z,88225.00
2023-04-29T09:34:46.348Z,88225.00
2023-04-29T09:35:46.380Z,88227.00
2023-04-29T09:36:46.422Z,88227.00
2023-04-29T09:37:46.453Z,88225.00
2023-04-29T09:38:46.509Z,88225.00
2023-04-29T09:39:46.557Z,88227.00
2023-04-29T09:40:58.834Z,88225.00
2023-04-29T09:41:47.539Z,88227.00
2023-04-29T09:42:46.524Z,88227.00
2023-04-29T09:43:46.493Z,88227.00
2023-04-29T09:44:46.472Z,88229.00
2023-04-29T09:45:46.470Z,88227.00
2023-04-29T09:46:46.395Z,88227.00
2023-04-29T09:47:46.400Z,88225.00
2023-04-29T09:48:46.368Z,88227.00
2023-04-29T09:49:46.402Z,88223.00
2023-04-29T09:50:46.446Z,88225.00
2023-04-29T09:51:46.456Z,88227.00
2023-04-29T09:52:46.511Z,88227.00
2023-04-29T09:53:46.570Z,88225.00
2023-04-29T09:54:46.587Z,88223.00
2023-04-29T09:55:46.656Z,88227.00
2023-04-29T09:56:46.691Z,88227.00
2023-04-29T09:57:47.613Z,88225.00
2023-04-29T09:58:47.141Z,88231.00
2023-04-29T09:59:46.585Z,88229.00
2023-04-29T10:00:46.664Z,88231.00
2023-04-29T10:01:46.570Z,88225.00
2023-04-29T10:02:46.626Z,88231.00
2023-04-29T10:03:46.568Z,88229.00
2023-04-29T10:04:46.511Z,88227.00
2023-04-29T10:05:46.453Z,88225.00
2023-04-29T10:06:47.144Z,88225.00
2023-04-29T10:07:46.519Z,88225.00
2023-04-29T10:08:46.554Z,88221.00
2023-04-29T10:09:46.609Z,88225.00
2023-04-29T10:10:46.649Z,88225.00
2023-04-29T10:11:46.698Z,88225.00
2023-04-29T10:12:46.743Z,88227.00
2023-04-29T10:13:46.775Z,88229.00
2023-04-29T10:14:46.817Z,88227.00
2023-04-29T10:15:46.854Z,88225.00
2023-04-29T10:16:46.891Z,88227.00
2023-04-29T10:17:46.963Z,88227.00
2023-04-29T10:18:47.038Z,88225.00
2023-04-29T10:19:47.021Z,88227.00
2023-04-29T10:20:47.051Z,88227.00
2023-04-29T10:21:48.665Z,88227.00
2023-04-29T10:22:47.072Z,88223.00
2023-04-29T10:23:47.023Z,88214.00
2023-04-29T10:24:47.030Z,88214.00
2023-04-29T10:25:46.994Z,88214.00
2023-04-29T10:26:46.980Z,88221.00
2023-04-29T10:27:46.940Z,88221.00
2023-04-29T10:28:46.938Z,88212.00
2023-04-29T10:29:46.867Z,88212.00
2023-04-29T10:30:46.837Z,88221.00
2023-04-29T10:31:46.930Z,88214.00
2023-04-29T10:32:51.203Z,88214.00
2023-04-29T10:33:47.763Z,88212.00
2023-04-29T10:34:46.762Z,88210.00
2023-04-29T10:35:46.712Z,88208.00
2023-04-29T10:36:46.667Z,88206.00
2023-04-29T10:37:46.631Z,88210.00
2023-04-29T10:38:46.624Z,88210.00
2023-04-29T10:39:46.585Z,88206.00
2023-04-29T10:40:46.578Z,88206.00
2023-04-29T10:41:46.621Z,88206.00
2023-04-29T10:42:46.643Z,88202.00
2023-04-29T10:43:46.660Z,88208.00
2023-04-29T10:44:46.720Z,88202.00
2023-04-29T10:45:46.726Z,88202.00
2023-04-29T10:46:46.797Z,88200.00
2023-04-29T10:47:46.817Z,88196.00
2023-04-29T10:48:46.871Z,88198.00
2023-04-29T10:49:46.894Z,88196.00
2023-04-29T10:50:46.937Z,88194.00
2023-04-29T10:51:46.964Z,88196.00
2023-04-29T10:52:46.987Z,88196.00
2023-04-29T10:53:47.050Z,88194.00
2023-04-29T10:54:47.071Z,88194.00
2023-04-29T10:55:47.116Z,88192.00
2023-04-29T10:56:47.150Z,88190.00
2023-04-29T10:57:47.197Z,88188.00
2023-04-29T10:58:47.271Z,88184.00
2023-04-29T10:59:47.262Z,88188.00
2023-04-29T11:00:47.396Z,88190.00
2023-04-29T11:01:47.365Z,88190.00
2023-04-29T11:02:47.431Z,88184.00
2023-04-29T11:03:47.661Z,88188.00
2023-04-29T11:04:47.488Z,88188.00
2023-04-29T11:05:47.513Z,88188.00
2023-04-29T11:06:47.542Z,88190.00
2023-04-29T11:07:47.571Z,88188.00
2023-04-29T11:08:47.617Z,88188.00
2023-04-29T11:09:47.644Z,88188.00
2023-04-29T11:10:47.655Z,88188.00
2023-04-29T11:11:47.679Z,88186.00
2023-04-29T11:12:47.731Z,88184.00
2023-04-29T11:13:47.751Z,88186.00
2023-04-29T11:14:47.743Z,88183.00
2023-04-29T11:15:47.789Z,88183.00
2023-04-29T11:16:47.903Z,88184.00
2023-04-29T11:17:47.832Z,88184.00
2023-04-29T11:18:47.814Z,88183.00
2023-04-29T11:19:47.857Z,88183.00
2023-04-29T11:20:47.890Z,88181.00
2023-04-29T11:21:47.946Z,88181.00
2023-04-29T11:22:48.002Z,88181.00
2023-04-29T11:23:48.046Z,88183.00
2023-04-29T11:24:48.061Z,88179.00
2023-04-29T11:25:48.102Z,88181.00
2023-04-29T11:26:48.140Z,88177.00
2023-04-29T11:27:48.161Z,88175.00
2023-04-29T11:28:48.156Z,88175.00
2023-04-29T11:29:48.139Z,88173.00
2023-04-29T11:30:48.108Z,88175.00
2023-04-29T11:31:48.159Z,88173.00
2023-04-29T11:32:48.096Z,88173.00
2023-04-29T11:33:47.992Z,88169.00
2023-04-29T11:34:47.991Z,88165.00
2023-04-29T11:35:47.956Z,88165.00
2023-04-29T11:36:47.933Z,88165.00
2023-04-29T11:37:47.932Z,88163.00
2023-04-29T11:38:47.847Z,88161.00
2023-04-29T11:39:47.820Z,88165.00
2023-04-29T11:40:47.857Z,88163.00
2023-04-29T11:41:47.888Z,88165.00
2023-04-29T11:42:47.894Z,88163.00
2023-04-29T11:43:47.949Z,88165.00
2023-04-29T11:44:47.930Z,88163.00